sensor_id;sensor_type;location;lat;lon;timestamp;P1;durP1;ratioP1;P2;durP2;ratioP2
13891;SDS011;7016;48.172;8.058;2022-07-10T00:02:26;5.25;;;2.20;;
13891;SDS011;7016;48.172;8.058;2022-07-10T00:04:52;3.22;;;2.00;;
13891;SDS011;7016;48.172;8.058;2022-07-10T00:07:18;5.90;;;2.50;;
13891;SDS011;7016;48.172;8.058;2022-07-10T00:09:43;3.90;;;2.17;;
13891;SDS011;7016;48.172;8.058;2022-07-10T00:12:09;4.32;;;2.00;;
13891;SDS011;7016;48.172;8.058;2022-07-10T00:14:35;3.03;;;2.13;;
13891;SDS011;7016;48.172;8.058;2022-07-10T00:17:00;2.55;;;2.00;;
13891;SDS011;7016;48.172;8.058;2022-07-10T00:19:26;3.55;;;2.30;;
13891;SDS011;7016;48.172;8.058;2022-07-10T00:21:52;4.70;;;2.30;;
13891;SDS011;7016;48.172;8.058;2022-07-10T00:24:17;3.85;;;2.22;;
13891;SDS011;7016;48.172;8.058;2022-07-10T00:26:43;6.75;;;2.47;;
13891;SDS011;7016;48.172;8.058;2022-07-10T00:29:09;3.47;;;2.35;;
13891;SDS011;7016;48.172;8.058;2022-07-10T00:31:34;4.40;;;2.05;;
13891;SDS011;7016;48.172;8.058;2022-07-10T00:34:00;3.65;;;2.17;;
13891;SDS011;7016;48.172;8.058;2022-07-10T00:36:26;5.20;;;2.00;;
13891;SDS011;7016;48.172;8.058;2022-07-10T00:38:51;3.67;;;1.85;;
13891;SDS011;7016;48.172;8.058;2022-07-10T00:41:17;3.97;;;1.95;;
13891;SDS011;7016;48.172;8.058;2022-07-10T00:43:56;6.10;;;2.20;;
13891;SDS011;7016;48.172;8.058;2022-07-10T00:46:24;6.75;;;2.30;;
13891;SDS011;7016;48.172;8.058;2022-07-10T00:48:51;3.70;;;2.13;;
13891;SDS011;7016;48.172;8.058;2022-07-10T00:51:17;3.63;;;2.10;;
13891;SDS011;7016;48.172;8.058;2022-07-10T00:53:45;6.43;;;2.10;;
13891;SDS011;7016;48.172;8.058;2022-07-10T00:56:14;7.85;;;2.28;;
13891;SDS011;7016;48.172;8.058;2022-07-10T00:58:42;3.50;;;2.08;;
13891;SDS011;7016;48.172;8.058;2022-07-10T01:01:10;2.65;;;2.05;;
13891;SDS011;7016;48.172;8.058;2022-07-10T01:03:36;4.18;;;1.95;;
13891;SDS011;7016;48.172;8.058;2022-07-10T01:06:02;2.70;;;1.90;;
13891;SDS011;7016;48.172;8.058;2022-07-10T01:08:28;3.45;;;1.80;;
13891;SDS011;7016;48.172;8.058;2022-07-10T01:10:54;4.88;;;2.15;;
13891;SDS011;7016;48.172;8.058;2022-07-10T01:13:21;2.88;;;2.17;;
13891;SDS011;7016;48.172;8.058;2022-07-10T01:15:46;4.13;;;2.15;;
13891;SDS011;7016;48.172;8.058;2022-07-10T01:18:13;3.28;;;2.30;;
13891;SDS011;7016;48.172;8.058;2022-07-10T01:20:39;7.43;;;2.50;;
13891;SDS011;7016;48.172;8.058;2022-07-10T01:23:05;3.47;;;2.35;;
13891;SDS011;7016;48.172;8.058;2022-07-10T01:25:31;3.92;;;2.22;;
13891;SDS011;7016;48.172;8.058;2022-07-10T01:27:57;6.00;;;2.58;;
13891;SDS011;7016;48.172;8.058;2022-07-10T01:30:24;4.78;;;2.13;;
13891;SDS011;7016;48.172;8.058;2022-07-10T01:32:50;4.22;;;2.53;;
13891;SDS011;7016;48.172;8.058;2022-07-10T01:35:17;4.10;;;2.50;;
13891;SDS011;7016;48.172;8.058;2022-07-10T01:37:43;5.03;;;2.10;;
13891;SDS011;7016;48.172;8.058;2022-07-10T01:40:10;5.57;;;2.35;;
13891;SDS011;7016;48.172;8.058;2022-07-10T01:42:36;2.80;;;2.17;;
13891;SDS011;7016;48.172;8.058;2022-07-10T01:45:06;2.95;;;2.20;;
13891;SDS011;7016;48.172;8.058;2022-07-10T01:47:33;12.98;;;2.72;;
13891;SDS011;7016;48.172;8.058;2022-07-10T01:49:59;3.45;;;2.20;;
13891;SDS011;7016;48.172;8.058;2022-07-10T01:52:24;5.38;;;2.33;;
13891;SDS011;7016;48.172;8.058;2022-07-10T01:54:50;3.97;;;2.53;;
13891;SDS011;7016;48.172;8.058;2022-07-10T01:57:16;2.83;;;2.03;;
13891;SDS011;7016;48.172;8.058;2022-07-10T01:59:42;6.00;;;2.53;;
13891;SDS011;7016;48.172;8.058;2022-07-10T02:02:08;3.50;;;2.42;;
13891;SDS011;7016;48.172;8.058;2022-07-10T02:04:34;3.95;;;2.40;;
13891;SDS011;7016;48.172;8.058;2022-07-10T02:07:09;3.47;;;2.25;;
13891;SDS011;7016;48.172;8.058;2022-07-10T02:09:37;6.32;;;2.08;;
13891;SDS011;7016;48.172;8.058;2022-07-10T02:12:04;4.82;;;2.15;;
13891;SDS011;7016;48.172;8.058;2022-07-10T02:14:33;3.40;;;2.30;;
13891;SDS011;7016;48.172;8.058;2022-07-10T02:17:00;3.38;;;2.33;;
13891;SDS011;7016;48.172;8.058;2022-07-10T02:19:26;5.05;;;2.40;;
13891;SDS011;7016;48.172;8.058;2022-07-10T02:21:52;4.35;;;2.22;;
13891;SDS011;7016;48.172;8.058;2022-07-10T02:24:17;4.95;;;2.20;;
13891;SDS011;7016;48.172;8.058;2022-07-10T02:26:43;6.65;;;2.40;;
13891;SDS011;7016;48.172;8.058;2022-07-10T02:29:12;4.43;;;2.20;;
13891;SDS011;7016;48.172;8.058;2022-07-10T02:31:38;7.85;;;2.60;;
13891;SDS011;7016;48.172;8.058;2022-07-10T02:34:11;4.55;;;2.28;;
13891;SDS011;7016;48.172;8.058;2022-07-10T02:36:38;4.35;;;2.17;;
13891;SDS011;7016;48.172;8.058;2022-07-10T02:39:05;5.38;;;2.05;;
13891;SDS011;7016;48.172;8.058;2022-07-10T02:41:31;4.68;;;2.10;;
13891;SDS011;7016;48.172;8.058;2022-07-10T02:43:57;4.60;;;2.17;;
13891;SDS011;7016;48.172;8.058;2022-07-10T02:46:24;5.07;;;2.50;;
13891;SDS011;7016;48.172;8.058;2022-07-10T02:48:50;4.97;;;2.60;;
13891;SDS011;7016;48.172;8.058;2022-07-10T02:51:16;6.53;;;2.70;;
13891;SDS011;7016;48.172;8.058;2022-07-10T02:53:41;5.25;;;2.40;;
13891;SDS011;7016;48.172;8.058;2022-07-10T02:56:07;4.35;;;2.33;;
13891;SDS011;7016;48.172;8.058;2022-07-10T02:58:34;4.35;;;2.60;;
13891;SDS011;7016;48.172;8.058;2022-07-10T03:01:00;2.88;;;2.35;;
13891;SDS011;7016;48.172;8.058;2022-07-10T03:03:25;2.75;;;2.20;;
13891;SDS011;7016;48.172;8.058;2022-07-10T03:05:51;4.82;;;2.60;;
13891;SDS011;7016;48.172;8.058;2022-07-10T03:08:17;3.47;;;2.50;;
13891;SDS011;7016;48.172;8.058;2022-07-10T03:10:43;3.00;;;2.40;;
13891;SDS011;7016;48.172;8.058;2022-07-10T03:13:09;4.45;;;2.67;;
13891;SDS011;7016;48.172;8.058;2022-07-10T03:15:34;4.95;;;2.70;;
13891;SDS011;7016;48.172;8.058;2022-07-10T03:18:00;3.47;;;2.42;;
13891;SDS011;7016;48.172;8.058;2022-07-10T03:20:26;3.13;;;2.63;;
13891;SDS011;7016;48.172;8.058;2022-07-10T03:22:52;5.15;;;2.30;;
13891;SDS011;7016;48.172;8.058;2022-07-10T03:25:18;5.10;;;2.42;;
13891;SDS011;7016;48.172;8.058;2022-07-10T03:27:43;3.15;;;2.38;;
13891;SDS011;7016;48.172;8.058;2022-07-10T03:30:09;4.72;;;2.45;;
13891;SDS011;7016;48.172;8.058;2022-07-10T03:32:35;4.25;;;2.28;;
13891;SDS011;7016;48.172;8.058;2022-07-10T03:35:02;4.10;;;2.45;;
13891;SDS011;7016;48.172;8.058;2022-07-10T03:37:28;4.07;;;2.92;;
13891;SDS011;7016;48.172;8.058;2022-07-10T03:39:53;5.72;;;2.92;;
13891;SDS011;7016;48.172;8.058;2022-07-10T03:42:19;2.88;;;2.40;;
13891;SDS011;7016;48.172;8.058;2022-07-10T03:44:45;4.13;;;2.75;;
13891;SDS011;7016;48.172;8.058;2022-07-10T03:47:11;3.05;;;2.60;;
13891;SDS011;7016;48.172;8.058;2022-07-10T03:49:36;4.40;;;2.30;;
13891;SDS011;7016;48.172;8.058;2022-07-10T03:52:04;5.28;;;2.55;;
13891;SDS011;7016;48.172;8.058;2022-07-10T03:54:30;2.67;;;2.33;;
13891;SDS011;7016;48.172;8.058;2022-07-10T03:56:57;4.55;;;2.72;;
13891;SDS011;7016;48.172;8.058;2022-07-10T04:02:07;6.22;;;2.58;;
13891;SDS011;7016;48.172;8.058;2022-07-10T04:04:33;6.38;;;2.88;;
13891;SDS011;7016;48.172;8.058;2022-07-10T04:06:58;4.25;;;2.60;;
13891;SDS011;7016;48.172;8.058;2022-07-10T04:09:24;3.10;;;2.60;;
13891;SDS011;7016;48.172;8.058;2022-07-10T04:11:50;3.75;;;2.70;;
13891;SDS011;7016;48.172;8.058;2022-07-10T04:14:16;4.18;;;2.83;;
13891;SDS011;7016;48.172;8.058;2022-07-10T04:16:41;3.83;;;2.95;;
13891;SDS011;7016;48.172;8.058;2022-07-10T04:19:07;5.20;;;2.90;;
13891;SDS011;7016;48.172;8.058;2022-07-10T04:21:33;5.57;;;2.80;;
13891;SDS011;7016;48.172;8.058;2022-07-10T04:23:58;4.35;;;2.88;;
13891;SDS011;7016;48.172;8.058;2022-07-10T04:26:24;4.28;;;2.90;;
13891;SDS011;7016;48.172;8.058;2022-07-10T04:28:50;6.28;;;3.47;;
13891;SDS011;7016;48.172;8.058;2022-07-10T04:31:16;5.15;;;3.00;;
13891;SDS011;7016;48.172;8.058;2022-07-10T04:33:41;3.80;;;2.80;;
13891;SDS011;7016;48.172;8.058;2022-07-10T04:36:07;4.95;;;2.88;;
13891;SDS011;7016;48.172;8.058;2022-07-10T04:38:33;4.75;;;2.75;;
13891;SDS011;7016;48.172;8.058;2022-07-10T04:40:59;4.20;;;2.88;;
13891;SDS011;7016;48.172;8.058;2022-07-10T04:43:25;6.38;;;3.55;;
13891;SDS011;7016;48.172;8.058;2022-07-10T04:45:50;3.50;;;2.95;;
13891;SDS011;7016;48.172;8.058;2022-07-10T04:48:16;3.80;;;2.92;;
13891;SDS011;7016;48.172;8.058;2022-07-10T04:50:42;5.90;;;3.20;;
13891;SDS011;7016;48.172;8.058;2022-07-10T04:53:07;4.60;;;3.03;;
13891;SDS011;7016;48.172;8.058;2022-07-10T04:55:33;4.18;;;3.10;;
13891;SDS011;7016;48.172;8.058;2022-07-10T04:57:59;5.07;;;3.40;;
13891;SDS011;7016;48.172;8.058;2022-07-10T05:00:25;4.20;;;3.20;;
13891;SDS011;7016;48.172;8.058;2022-07-10T05:03:04;4.53;;;3.22;;
13891;SDS011;7016;48.172;8.058;2022-07-10T05:05:29;4.43;;;3.15;;
13891;SDS011;7016;48.172;8.058;2022-07-10T05:07:55;5.45;;;3.03;;
13891;SDS011;7016;48.172;8.058;2022-07-10T05:10:21;6.47;;;3.35;;
13891;SDS011;7016;48.172;8.058;2022-07-10T05:12:47;3.65;;;2.70;;
13891;SDS011;7016;48.172;8.058;2022-07-10T05:15:13;4.53;;;3.30;;
13891;SDS011;7016;48.172;8.058;2022-07-10T05:17:39;4.38;;;3.10;;
13891;SDS011;7016;48.172;8.058;2022-07-10T05:20:05;3.92;;;2.92;;
13891;SDS011;7016;48.172;8.058;2022-07-10T05:22:31;3.40;;;3.00;;
13891;SDS011;7016;48.172;8.058;2022-07-10T05:24:57;3.60;;;3.25;;
13891;SDS011;7016;48.172;8.058;2022-07-10T05:27:22;3.85;;;3.08;;
13891;SDS011;7016;48.172;8.058;2022-07-10T05:29:48;4.13;;;3.20;;
13891;SDS011;7016;48.172;8.058;2022-07-10T05:32:14;4.55;;;3.17;;
13891;SDS011;7016;48.172;8.058;2022-07-10T05:34:40;6.05;;;3.38;;
13891;SDS011;7016;48.172;8.058;2022-07-10T05:37:05;4.18;;;3.22;;
13891;SDS011;7016;48.172;8.058;2022-07-10T05:39:32;4.57;;;3.30;;
13891;SDS011;7016;48.172;8.058;2022-07-10T05:41:58;4.53;;;3.53;;
13891;SDS011;7016;48.172;8.058;2022-07-10T05:44:24;4.47;;;3.80;;
13891;SDS011;7016;48.172;8.058;2022-07-10T05:46:50;4.20;;;3.55;;
13891;SDS011;7016;48.172;8.058;2022-07-10T05:49:16;6.43;;;3.35;;
13891;SDS011;7016;48.172;8.058;2022-07-10T05:51:42;6.75;;;3.40;;
13891;SDS011;7016;48.172;8.058;2022-07-10T05:54:07;4.57;;;3.70;;
13891;SDS011;7016;48.172;8.058;2022-07-10T05:56:33;7.50;;;3.50;;
13891;SDS011;7016;48.172;8.058;2022-07-10T05:58:59;5.32;;;3.72;;
13891;SDS011;7016;48.172;8.058;2022-07-10T06:01:25;3.83;;;3.35;;
13891;SDS011;7016;48.172;8.058;2022-07-10T06:03:51;5.25;;;3.00;;
13891;SDS011;7016;48.172;8.058;2022-07-10T06:06:17;5.00;;;3.28;;
13891;SDS011;7016;48.172;8.058;2022-07-10T06:08:43;7.47;;;3.55;;
13891;SDS011;7016;48.172;8.058;2022-07-10T06:11:09;5.78;;;3.33;;
13891;SDS011;7016;48.172;8.058;2022-07-10T06:13:36;8.20;;;3.80;;
13891;SDS011;7016;48.172;8.058;2022-07-10T06:16:02;8.10;;;3.92;;
13891;SDS011;7016;48.172;8.058;2022-07-10T06:18:31;4.53;;;3.65;;
13891;SDS011;7016;48.172;8.058;2022-07-10T06:20:57;5.32;;;3.72;;
13891;SDS011;7016;48.172;8.058;2022-07-10T06:23:23;8.35;;;3.78;;
13891;SDS011;7016;48.172;8.058;2022-07-10T06:25:49;7.35;;;3.70;;
13891;SDS011;7016;48.172;8.058;2022-07-10T06:28:18;6.75;;;3.33;;
13891;SDS011;7016;48.172;8.058;2022-07-10T06:30:44;6.18;;;3.22;;
13891;SDS011;7016;48.172;8.058;2022-07-10T06:33:11;4.82;;;3.45;;
13891;SDS011;7016;48.172;8.058;2022-07-10T06:35:37;6.97;;;3.45;;
13891;SDS011;7016;48.172;8.058;2022-07-10T06:38:03;6.78;;;3.30;;
13891;SDS011;7016;48.172;8.058;2022-07-10T06:40:28;6.57;;;3.53;;
13891;SDS011;7016;48.172;8.058;2022-07-10T06:42:55;4.57;;;3.40;;
13891;SDS011;7016;48.172;8.058;2022-07-10T06:45:21;5.50;;;3.33;;
13891;SDS011;7016;48.172;8.058;2022-07-10T06:47:46;3.72;;;3.03;;
13891;SDS011;7016;48.172;8.058;2022-07-10T06:50:22;4.90;;;3.00;;
13891;SDS011;7016;48.172;8.058;2022-07-10T06:52:50;5.25;;;2.90;;
13891;SDS011;7016;48.172;8.058;2022-07-10T06:55:18;5.78;;;3.20;;
13891;SDS011;7016;48.172;8.058;2022-07-10T06:57:44;5.20;;;2.97;;
13891;SDS011;7016;48.172;8.058;2022-07-10T07:00:10;5.47;;;3.08;;
13891;SDS011;7016;48.172;8.058;2022-07-10T07:02:36;5.47;;;3.28;;
13891;SDS011;7016;48.172;8.058;2022-07-10T07:05:03;7.07;;;3.00;;
13891;SDS011;7016;48.172;8.058;2022-07-10T07:07:29;3.35;;;2.95;;
13891;SDS011;7016;48.172;8.058;2022-07-10T07:09:55;5.55;;;3.13;;
13891;SDS011;7016;48.172;8.058;2022-07-10T07:12:22;6.47;;;3.35;;
13891;SDS011;7016;48.172;8.058;2022-07-10T07:14:47;4.20;;;2.97;;
13891;SDS011;7016;48.172;8.058;2022-07-10T07:17:13;4.57;;;2.90;;
13891;SDS011;7016;48.172;8.058;2022-07-10T07:19:46;6.55;;;2.80;;
13891;SDS011;7016;48.172;8.058;2022-07-10T07:25:18;5.82;;;2.92;;
13891;SDS011;7016;48.172;8.058;2022-07-10T07:27:44;5.25;;;2.67;;
13891;SDS011;7016;48.172;8.058;2022-07-10T07:30:13;6.72;;;3.00;;
13891;SDS011;7016;48.172;8.058;2022-07-10T07:32:40;5.93;;;2.83;;
13891;SDS011;7016;48.172;8.058;2022-07-10T07:35:07;4.50;;;2.95;;
13891;SDS011;7016;48.172;8.058;2022-07-10T07:40:07;5.13;;;2.83;;
13891;SDS011;7016;48.172;8.058;2022-07-10T07:42:35;5.40;;;2.45;;
13891;SDS011;7016;48.172;8.058;2022-07-10T07:45:01;7.72;;;3.10;;
13891;SDS011;7016;48.172;8.058;2022-07-10T07:47:29;5.28;;;2.63;;
13891;SDS011;7016;48.172;8.058;2022-07-10T07:49:56;5.00;;;2.47;;
13891;SDS011;7016;48.172;8.058;2022-07-10T07:52:26;4.57;;;2.67;;
13891;SDS011;7016;48.172;8.058;2022-07-10T07:54:52;5.10;;;2.85;;
13891;SDS011;7016;48.172;8.058;2022-07-10T07:57:17;6.18;;;2.85;;
13891;SDS011;7016;48.172;8.058;2022-07-10T07:59:43;5.93;;;3.03;;
13891;SDS011;7016;48.172;8.058;2022-07-10T08:02:09;6.85;;;2.55;;
13891;SDS011;7016;48.172;8.058;2022-07-10T08:04:35;5.05;;;2.70;;
13891;SDS011;7016;48.172;8.058;2022-07-10T08:07:00;4.22;;;2.60;;
13891;SDS011;7016;48.172;8.058;2022-07-10T08:09:27;4.80;;;2.70;;
13891;SDS011;7016;48.172;8.058;2022-07-10T08:11:53;5.43;;;2.70;;
13891;SDS011;7016;48.172;8.058;2022-07-10T08:14:18;3.95;;;2.60;;
13891;SDS011;7016;48.172;8.058;2022-07-10T08:16:44;5.65;;;2.60;;
13891;SDS011;7016;48.172;8.058;2022-07-10T08:19:10;4.68;;;2.72;;
13891;SDS011;7016;48.172;8.058;2022-07-10T08:21:36;5.47;;;2.53;;
13891;SDS011;7016;48.172;8.058;2022-07-10T08:24:02;6.35;;;2.70;;
13891;SDS011;7016;48.172;8.058;2022-07-10T08:26:27;5.53;;;2.70;;
13891;SDS011;7016;48.172;8.058;2022-07-10T08:28:53;14.95;;;5.70;;
13891;SDS011;7016;48.172;8.058;2022-07-10T08:31:19;7.05;;;3.15;;
13891;SDS011;7016;48.172;8.058;2022-07-10T08:33:44;7.18;;;3.65;;
13891;SDS011;7016;48.172;8.058;2022-07-10T08:36:11;10.60;;;3.83;;
13891;SDS011;7016;48.172;8.058;2022-07-10T08:38:37;7.32;;;4.30;;
13891;SDS011;7016;48.172;8.058;2022-07-10T08:41:03;6.63;;;2.88;;
13891;SDS011;7016;48.172;8.058;2022-07-10T08:43:31;7.07;;;2.60;;
13891;SDS011;7016;48.172;8.058;2022-07-10T08:45:58;5.82;;;2.80;;
13891;SDS011;7016;48.172;8.058;2022-07-10T08:48:24;5.22;;;2.60;;
13891;SDS011;7016;48.172;8.058;2022-07-10T08:50:53;6.05;;;2.60;;
13891;SDS011;7016;48.172;8.058;2022-07-10T08:53:31;5.80;;;3.00;;
13891;SDS011;7016;48.172;8.058;2022-07-10T08:55:57;4.05;;;2.60;;
13891;SDS011;7016;48.172;8.058;2022-07-10T08:58:24;5.53;;;2.78;;
13891;SDS011;7016;48.172;8.058;2022-07-10T09:00:54;5.00;;;2.70;;
13891;SDS011;7016;48.172;8.058;2022-07-10T09:03:21;6.88;;;2.58;;
13891;SDS011;7016;48.172;8.058;2022-07-10T09:05:46;4.13;;;2.40;;
13891;SDS011;7016;48.172;8.058;2022-07-10T09:08:25;5.25;;;2.85;;
13891;SDS011;7016;48.172;8.058;2022-07-10T09:11:14;4.45;;;2.60;;
13891;SDS011;7016;48.172;8.058;2022-07-10T09:13:51;5.32;;;2.35;;
13891;SDS011;7016;48.172;8.058;2022-07-10T09:16:27;6.10;;;2.33;;
13891;SDS011;7016;48.172;8.058;2022-07-10T09:18:54;5.13;;;2.67;;
13891;SDS011;7016;48.172;8.058;2022-07-10T09:21:21;5.88;;;2.30;;
13891;SDS011;7016;48.172;8.058;2022-07-10T09:23:47;6.20;;;3.10;;
13891;SDS011;7016;48.172;8.058;2022-07-10T09:26:14;5.57;;;2.40;;
13891;SDS011;7016;48.172;8.058;2022-07-10T09:28:40;5.88;;;2.10;;
13891;SDS011;7016;48.172;8.058;2022-07-10T09:31:06;7.32;;;2.10;;
13891;SDS011;7016;48.172;8.058;2022-07-10T09:33:32;4.93;;;2.28;;
13891;SDS011;7016;48.172;8.058;2022-07-10T09:41:28;5.55;;;1.98;;
13891;SDS011;7016;48.172;8.058;2022-07-10T09:43:59;7.07;;;2.45;;
13891;SDS011;7016;48.172;8.058;2022-07-10T09:46:28;8.43;;;2.00;;
13891;SDS011;7016;48.172;8.058;2022-07-10T09:49:08;5.47;;;2.25;;
13891;SDS011;7016;48.172;8.058;2022-07-10T09:54:05;5.90;;;2.45;;
13891;SDS011;7016;48.172;8.058;2022-07-10T09:56:33;4.85;;;1.98;;
13891;SDS011;7016;48.172;8.058;2022-07-10T09:59:13;5.82;;;1.90;;
13891;SDS011;7016;48.172;8.058;2022-07-10T10:01:59;5.93;;;2.00;;
13891;SDS011;7016;48.172;8.058;2022-07-10T10:04:25;3.13;;;1.80;;
13891;SDS011;7016;48.172;8.058;2022-07-10T10:06:58;7.32;;;2.00;;
13891;SDS011;7016;48.172;8.058;2022-07-10T10:09:33;10.13;;;2.17;;
13891;SDS011;7016;48.172;8.058;2022-07-10T10:12:04;4.95;;;2.13;;
13891;SDS011;7016;48.172;8.058;2022-07-10T10:14:35;4.53;;;2.47;;
13891;SDS011;7016;48.172;8.058;2022-07-10T10:17:03;4.55;;;2.42;;
13891;SDS011;7016;48.172;8.058;2022-07-10T10:19:32;4.95;;;2.03;;
13891;SDS011;7016;48.172;8.058;2022-07-10T10:22:18;5.18;;;2.25;;
13891;SDS011;7016;48.172;8.058;2022-07-10T10:24:46;6.93;;;2.30;;
13891;SDS011;7016;48.172;8.058;2022-07-10T10:27:13;4.35;;;2.10;;
13891;SDS011;7016;48.172;8.058;2022-07-10T10:29:40;4.30;;;2.00;;
13891;SDS011;7016;48.172;8.058;2022-07-10T10:32:06;3.95;;;2.10;;
13891;SDS011;7016;48.172;8.058;2022-07-10T10:34:41;7.15;;;1.90;;
13891;SDS011;7016;48.172;8.058;2022-07-10T10:40:03;5.10;;;1.88;;
13891;SDS011;7016;48.172;8.058;2022-07-10T10:42:40;4.28;;;1.98;;
13891;SDS011;7016;48.172;8.058;2022-07-10T10:48:06;4.03;;;2.00;;
13891;SDS011;7016;48.172;8.058;2022-07-10T10:50:40;7.00;;;2.28;;
13891;SDS011;7016;48.172;8.058;2022-07-10T10:56:20;5.07;;;1.88;;
13891;SDS011;7016;48.172;8.058;2022-07-10T10:58:36;8.35;;;2.30;;
13891;SDS011;7016;48.172;8.058;2022-07-10T11:01:04;10.25;;;2.17;;
13891;SDS011;7016;48.172;8.058;2022-07-10T11:03:30;5.07;;;1.85;;
13891;SDS011;7016;48.172;8.058;2022-07-10T11:05:56;4.63;;;2.10;;
13891;SDS011;7016;48.172;8.058;2022-07-10T11:08:43;6.18;;;1.80;;
13891;SDS011;7016;48.172;8.058;2022-07-10T11:13:58;9.23;;;2.20;;
13891;SDS011;7016;48.172;8.058;2022-07-10T11:16:24;7.18;;;1.95;;
13891;SDS011;7016;48.172;8.058;2022-07-10T11:18:54;4.88;;;1.90;;
13891;SDS011;7016;48.172;8.058;2022-07-10T11:21:24;4.93;;;1.60;;
13891;SDS011;7016;48.172;8.058;2022-07-10T11:26:36;6.40;;;1.80;;
13891;SDS011;7016;48.172;8.058;2022-07-10T11:29:06;5.22;;;1.80;;
13891;SDS011;7016;48.172;8.058;2022-07-10T11:31:32;3.40;;;1.50;;
13891;SDS011;7016;48.172;8.058;2022-07-10T11:34:03;2.53;;;1.40;;
13891;SDS011;7016;48.172;8.058;2022-07-10T11:36:29;6.10;;;1.60;;
13891;SDS011;7016;48.172;8.058;2022-07-10T11:41:24;3.22;;;1.50;;
13891;SDS011;7016;48.172;8.058;2022-07-10T11:43:52;5.22;;;1.75;;
13891;SDS011;7016;48.172;8.058;2022-07-10T11:46:20;3.08;;;1.40;;
13891;SDS011;7016;48.172;8.058;2022-07-10T11:48:48;3.05;;;1.17;;
13891;SDS011;7016;48.172;8.058;2022-07-10T11:54:07;6.82;;;1.70;;
13891;SDS011;7016;48.172;8.058;2022-07-10T11:56:41;4.80;;;1.80;;
13891;SDS011;7016;48.172;8.058;2022-07-10T11:59:13;4.70;;;1.70;;
13891;SDS011;7016;48.172;8.058;2022-07-10T12:01:41;3.60;;;1.50;;
13891;SDS011;7016;48.172;8.058;2022-07-10T12:04:15;11.52;;;1.70;;
13891;SDS011;7016;48.172;8.058;2022-07-10T12:06:46;3.38;;;1.50;;
13891;SDS011;7016;48.172;8.058;2022-07-10T12:09:13;5.93;;;1.20;;
13891;SDS011;7016;48.172;8.058;2022-07-10T12:11:40;6.05;;;1.70;;
13891;SDS011;7016;48.172;8.058;2022-07-10T12:14:18;4.43;;;1.50;;
13891;SDS011;7016;48.172;8.058;2022-07-10T12:16:54;5.10;;;1.50;;
13891;SDS011;7016;48.172;8.058;2022-07-10T12:19:28;4.50;;;1.40;;
13891;SDS011;7016;48.172;8.058;2022-07-10T12:21:58;2.60;;;1.17;;
13891;SDS011;7016;48.172;8.058;2022-07-10T12:24:25;6.53;;;1.73;;
13891;SDS011;7016;48.172;8.058;2022-07-10T12:26:52;4.63;;;1.50;;
13891;SDS011;7016;48.172;8.058;2022-07-10T12:29:29;3.17;;;1.38;;
13891;SDS011;7016;48.172;8.058;2022-07-10T12:31:56;3.47;;;1.23;;
13891;SDS011;7016;48.172;8.058;2022-07-10T12:34:33;3.97;;;1.40;;
13891;SDS011;7016;48.172;8.058;2022-07-10T12:37:06;3.42;;;1.50;;
13891;SDS011;7016;48.172;8.058;2022-07-10T12:39:46;2.60;;;1.35;;
13891;SDS011;7016;48.172;8.058;2022-07-10T12:42:12;7.75;;;1.40;;
13891;SDS011;7016;48.172;8.058;2022-07-10T12:44:40;2.97;;;1.10;;
13891;SDS011;7016;48.172;8.058;2022-07-10T12:47:10;3.67;;;1.30;;
13891;SDS011;7016;48.172;8.058;2022-07-10T13:00:27;4.05;;;1.30;;
13891;SDS011;7016;48.172;8.058;2022-07-10T13:05:30;3.10;;;1.30;;
13891;SDS011;7016;48.172;8.058;2022-07-10T13:08:05;4.85;;;1.52;;
13891;SDS011;7016;48.172;8.058;2022-07-10T13:10:58;3.55;;;1.25;;
13891;SDS011;7016;48.172;8.058;2022-07-10T13:13:24;2.17;;;1.20;;
13891;SDS011;7016;48.172;8.058;2022-07-10T13:15:50;3.40;;;1.40;;
13891;SDS011;7016;48.172;8.058;2022-07-10T13:18:19;2.88;;;1.10;;
13891;SDS011;7016;48.172;8.058;2022-07-10T13:20:46;4.40;;;1.25;;
13891;SDS011;7016;48.172;8.058;2022-07-10T13:23:13;6.05;;;1.20;;
13891;SDS011;7016;48.172;8.058;2022-07-10T13:25:40;2.67;;;1.10;;
13891;SDS011;7016;48.172;8.058;2022-07-10T13:28:07;7.78;;;1.20;;
13891;SDS011;7016;48.172;8.058;2022-07-10T13:30:34;5.18;;;1.30;;
13891;SDS011;7016;48.172;8.058;2022-07-10T13:33:00;4.78;;;1.33;;
13891;SDS011;7016;48.172;8.058;2022-07-10T13:35:27;2.97;;;1.27;;
13891;SDS011;7016;48.172;8.058;2022-07-10T13:37:54;4.25;;;1.67;;
13891;SDS011;7016;48.172;8.058;2022-07-10T13:40:21;4.60;;;1.17;;
13891;SDS011;7016;48.172;8.058;2022-07-10T13:42:46;2.22;;;1.00;;
13891;SDS011;7016;48.172;8.058;2022-07-10T13:45:12;3.97;;;1.30;;
13891;SDS011;7016;48.172;8.058;2022-07-10T13:47:38;3.47;;;0.90;;
13891;SDS011;7016;48.172;8.058;2022-07-10T13:50:04;2.30;;;1.00;;
13891;SDS011;7016;48.172;8.058;2022-07-10T13:52:30;2.63;;;1.13;;
13891;SDS011;7016;48.172;8.058;2022-07-10T13:54:55;2.30;;;1.00;;
13891;SDS011;7016;48.172;8.058;2022-07-10T13:57:22;4.95;;;1.55;;
13891;SDS011;7016;48.172;8.058;2022-07-10T13:59:48;2.22;;;0.98;;
13891;SDS011;7016;48.172;8.058;2022-07-10T14:02:14;4.03;;;1.00;;
13891;SDS011;7016;48.172;8.058;2022-07-10T14:04:40;2.97;;;1.08;;
13891;SDS011;7016;48.172;8.058;2022-07-10T14:07:06;2.17;;;1.00;;
13891;SDS011;7016;48.172;8.058;2022-07-10T14:09:32;3.70;;;1.13;;
13891;SDS011;7016;48.172;8.058;2022-07-10T14:11:57;3.97;;;1.27;;
13891;SDS011;7016;48.172;8.058;2022-07-10T14:14:23;3.50;;;0.95;;
13891;SDS011;7016;48.172;8.058;2022-07-10T14:16:49;2.33;;;0.85;;
13891;SDS011;7016;48.172;8.058;2022-07-10T14:19:16;4.72;;;1.00;;
13891;SDS011;7016;48.172;8.058;2022-07-10T14:21:42;3.92;;;1.02;;
13891;SDS011;7016;48.172;8.058;2022-07-10T14:24:08;1.92;;;0.90;;
13891;SDS011;7016;48.172;8.058;2022-07-10T14:26:33;2.25;;;0.80;;
13891;SDS011;7016;48.172;8.058;2022-07-10T14:29:01;2.75;;;1.05;;
13891;SDS011;7016;48.172;8.058;2022-07-10T14:31:28;3.25;;;0.93;;
13891;SDS011;7016;48.172;8.058;2022-07-10T14:33:54;2.88;;;0.95;;
13891;SDS011;7016;48.172;8.058;2022-07-10T14:36:20;5.03;;;1.15;;
13891;SDS011;7016;48.172;8.058;2022-07-10T14:38:54;3.95;;;0.77;;
13891;SDS011;7016;48.172;8.058;2022-07-10T14:41:21;2.28;;;0.75;;
13891;SDS011;7016;48.172;8.058;2022-07-10T14:43:47;3.78;;;1.13;;
13891;SDS011;7016;48.172;8.058;2022-07-10T14:46:13;1.92;;;0.90;;
13891;SDS011;7016;48.172;8.058;2022-07-10T14:48:39;2.30;;;0.80;;
13891;SDS011;7016;48.172;8.058;2022-07-10T14:51:05;2.58;;;0.90;;
13891;SDS011;7016;48.172;8.058;2022-07-10T14:53:32;2.45;;;0.85;;
13891;SDS011;7016;48.172;8.058;2022-07-10T14:56:01;2.40;;;0.90;;
13891;SDS011;7016;48.172;8.058;2022-07-10T14:58:30;5.68;;;1.10;;
13891;SDS011;7016;48.172;8.058;2022-07-10T15:00:56;2.05;;;0.80;;
13891;SDS011;7016;48.172;8.058;2022-07-10T15:03:22;2.08;;;0.75;;
13891;SDS011;7016;48.172;8.058;2022-07-10T15:05:48;1.00;;;0.63;;
13891;SDS011;7016;48.172;8.058;2022-07-10T15:08:20;2.13;;;0.75;;
13891;SDS011;7016;48.172;8.058;2022-07-10T15:10:47;5.55;;;1.15;;
13891;SDS011;7016;48.172;8.058;2022-07-10T15:13:13;2.13;;;0.90;;
13891;SDS011;7016;48.172;8.058;2022-07-10T15:15:39;1.50;;;0.70;;
13891;SDS011;7016;48.172;8.058;2022-07-10T15:18:05;1.85;;;0.80;;
13891;SDS011;7016;48.172;8.058;2022-07-10T15:20:31;1.23;;;0.60;;
13891;SDS011;7016;48.172;8.058;2022-07-10T15:22:57;1.55;;;0.80;;
13891;SDS011;7016;48.172;8.058;2022-07-10T15:25:23;3.67;;;0.90;;
13891;SDS011;7016;48.172;8.058;2022-07-10T15:27:50;3.67;;;0.70;;
13891;SDS011;7016;48.172;8.058;2022-07-10T15:30:15;3.67;;;0.75;;
13891;SDS011;7016;48.172;8.058;2022-07-10T15:32:41;2.83;;;0.95;;
13891;SDS011;7016;48.172;8.058;2022-07-10T15:35:07;4.15;;;0.95;;
13891;SDS011;7016;48.172;8.058;2022-07-10T15:37:34;2.80;;;0.70;;
13891;SDS011;7016;48.172;8.058;2022-07-10T15:40:00;3.63;;;1.00;;
13891;SDS011;7016;48.172;8.058;2022-07-10T15:42:26;2.13;;;0.80;;
13891;SDS011;7016;48.172;8.058;2022-07-10T15:44:51;5.28;;;1.00;;
13891;SDS011;7016;48.172;8.058;2022-07-10T15:47:17;2.38;;;0.90;;
13891;SDS011;7016;48.172;8.058;2022-07-10T15:49:43;4.03;;;0.90;;
13891;SDS011;7016;48.172;8.058;2022-07-10T15:52:09;2.90;;;0.98;;